Time;durP1;ratioP1;P1;durP2;ratioP2;P2;SDS_P1;SDS_P2;PMS_P1;PMS_P2;Temp;Humidity;BMP_temperature;BMP_pressure;BME280_temperature;BME280_humidity;BME280_pressure;Samples;Min_cycle;Max_cycle;Signal;HPM_P1;HPM_P2
2022/07/01 00:01:10;;;;;;;9.52;6.60;;;;;;;27.77;49.03;99396.03;4443859;32;31637;-81
2022/07/01 00:03:48;;;;;;;9.95;6.22;;;;;;;27.73;49.06;99399.84;4443513;32;32218;-83
2022/07/01 00:06:22;;;;;;;14.15;6.43;;;;;;;27.72;49.11;99407.47;4444669;32;33819;-80
2022/07/01 00:08:55;;;;;;;8.75;6.03;;;;;;;27.68;49.17;99400.00;4443643;32;32342;-82
2022/07/01 00:11:25;;;;;;;11.05;5.65;;;;;;;27.68;49.20;99403.66;4470806;32;33828;-82
2022/07/01 00:14:06;;;;;;;10.43;6.37;;;;;;;27.67;49.42;99409.62;4445264;32;34559;-81
2022/07/01 00:16:34;;;;;;;11.45;6.53;;;;;;;27.67;49.47;99403.97;4430342;32;32812;-82
2022/07/01 00:19:05;;;;;;;9.90;6.47;;;;;;;27.61;49.61;99403.31;4443771;32;34567;-83
2022/07/01 00:21:36;;;;;;;13.65;6.37;;;;;;;27.63;49.53;99401.00;4456506;32;33519;-81
2022/07/01 00:24:09;;;;;;;11.55;6.35;;;;;;;27.47;50.10;99405.41;4455711;32;32380;-80
2022/07/01 00:26:40;;;;;;;11.77;6.45;;;;;;;27.46;50.10;99407.37;4430248;32;33010;-83
2022/07/01 00:29:14;;;;;;;13.77;7.30;;;;;;;27.27;50.74;99406.03;4443480;32;34648;-83
2022/07/01 00:31:45;;;;;;;8.73;6.05;;;;;;;27.28;50.71;99402.06;4455768;32;33361;-82
2022/07/01 00:34:16;;;;;;;8.82;6.15;;;;;;;27.30;50.62;99405.38;4443368;32;33762;-83
2022/07/01 00:36:51;;;;;;;11.00;6.25;;;;;;;27.15;50.79;99401.84;4443017;32;35128;-82
2022/07/01 00:39:19;;;;;;;11.77;6.32;;;;;;;27.27;50.47;99400.38;4443182;32;32336;-82
2022/07/01 00:41:53;;;;;;;10.05;6.12;;;;;;;27.22;50.53;99405.00;4444048;32;33355;-81
2022/07/01 00:44:28;;;;;;;10.38;6.50;;;;;;;27.22;50.48;99405.00;4444051;32;32173;-81
2022/07/01 00:47:05;;;;;;;14.25;6.68;;;;;;;27.19;50.68;99405.66;4434015;32;33725;-80
2022/07/01 00:49:36;;;;;;;11.15;6.40;;;;;;;27.13;50.88;99401.34;4458058;32;33974;-82
2022/07/01 00:52:10;;;;;;;11.52;6.43;;;;;;;27.03;51.03;99398.81;4446220;32;33678;-81
2022/07/01 00:54:44;;;;;;;12.32;6.57;;;;;;;27.09;50.91;99400.31;4458724;32;34655;-83
2022/07/01 00:57:15;;;;;;;12.93;6.82;;;;;;;27.06;50.97;99391.69;4459765;32;34559;-83
2022/07/01 00:59:48;;;;;;;13.57;6.20;;;;;;;27.07;51.07;99402.62;4447331;32;34024;-83
2022/07/01 01:02:17;;;;;;;12.93;6.18;;;;;;;26.98;51.34;99401.75;4445607;32;33931;-80
2022/07/01 01:04:47;;;;;;;11.93;6.75;;;;;;;26.87;51.63;99403.16;4443948;32;34562;-82
2022/07/01 01:07:14;;;;;;;9.27;6.53;;;;;;;26.89;51.53;99393.25;4456637;32;34607;-81
2022/07/01 01:09:46;;;;;;;11.32;6.05;;;;;;;26.87;51.52;99398.37;4443837;32;32511;-79
2022/07/01 01:12:18;;;;;;;12.77;5.97;;;;;;;26.85;51.67;99402.66;4431023;32;32814;-80
2022/07/01 01:14:55;;;;;;;10.40;6.37;;;;;;;26.84;51.57;99407.47;4442558;32;33798;-79
2022/07/01 01:17:26;;;;;;;11.38;7.00;;;;;;;26.88;51.46;99405.66;4442906;32;34331;-80
2022/07/01 01:19:55;;;;;;;12.00;6.68;;;;;;;26.80;51.94;99414.87;4442440;32;32704;-79
2022/07/01 01:22:29;;;;;;;11.15;6.25;;;;;;;26.66;52.18;99408.50;4469595;32;33384;-78
2022/07/01 01:25:00;;;;;;;10.68;6.35;;;;;;;26.74;51.74;99404.91;4442238;32;32307;-79
2022/07/01 01:27:28;;;;;;;11.00;6.20;;;;;;;26.66;52.02;99405.69;4442026;32;34219;-81
2022/07/01 01:29:59;;;;;;;9.85;6.25;;;;;;;26.64;52.06;99402.41;4442532;32;33879;-79
2022/07/01 01:32:33;;;;;;;10.27;6.15;;;;;;;26.58;52.17;99401.72;4442022;32;33291;-79
2022/07/01 01:35:01;;;;;;;10.30;5.95;;;;;;;26.55;52.18;99410.78;4470396;32;36704;-79
2022/07/01 01:37:35;;;;;;;10.10;6.50;;;;;;;26.70;51.65;99409.53;4457051;32;34243;-79
2022/07/01 01:40:08;;;;;;;12.55;6.25;;;;;;;26.72;51.63;99414.84;4431375;32;32874;-80
2022/07/01 01:42:45;;;;;;;8.80;6.28;;;;;;;26.69;51.85;99419.13;4457756;32;32971;-80
2022/07/01 01:45:19;;;;;;;9.65;6.12;;;;;;;26.57;52.21;99418.91;4445160;32;33948;-80
2022/07/01 01:47:52;;;;;;;10.95;6.18;;;;;;;26.56;52.00;99409.62;4431973;32;33046;-79
2022/07/01 01:50:22;;;;;;;12.60;6.30;;;;;;;26.50;52.39;99413.75;4457073;32;33768;-79
2022/07/01 01:52:53;;;;;;;14.90;6.00;;;;;;;26.50;52.38;99410.91;4444612;32;33282;-77
2022/07/01 01:55:21;;;;;;;10.90;6.00;;;;;;;26.51;52.41;99408.94;4456625;32;33736;-79
2022/07/01 01:57:59;;;;;;;12.85;6.00;;;;;;;26.57;52.22;99397.22;4470954;32;35248;-79
2022/07/01 02:00:35;;;;;;;10.05;5.97;;;;;;;26.61;52.10;99399.41;4444093;32;32463;-79
2022/07/01 02:03:07;;;;;;;17.00;7.32;;;;;;;26.46;52.55;99403.44;4457187;32;33267;-80
2022/07/01 02:05:38;;;;;;;8.80;6.68;;;;;;;26.35;52.95;99397.25;4444381;32;34432;-79
2022/07/01 02:08:16;;;;;;;10.23;6.57;;;;;;;26.33;53.10;99393.91;4445606;32;35078;-80
2022/07/01 02:10:46;;;;;;;13.23;6.53;;;;;;;26.37;53.01;99396.91;4443931;32;33696;-80
2022/07/01 02:13:25;;;;;;;11.65;6.30;;;;;;;26.35;53.11;99397.25;4445537;32;33117;-79
2022/07/01 02:15:52;;;;;;;9.40;6.30;;;;;;;26.36;53.11;99398.91;4456670;32;34453;-79
2022/07/01 02:18:23;;;;;;;10.00;6.85;;;;;;;26.35;53.11;99394.44;4443841;32;32927;-79
2022/07/01 02:20:54;;;;;;;13.15;6.70;;;;;;;26.31;53.36;99399.03;4444044;32;33818;-79
2022/07/01 02:23:29;;;;;;;10.18;6.50;;;;;;;26.21;53.83;99397.28;4443849;32;32680;-80
2022/07/01 02:25:59;;;;;;;10.02;6.18;;;;;;;26.20;53.83;99400.41;4443877;32;33467;-80
2022/07/01 02:28:29;;;;;;;11.55;6.75;;;;;;;26.23;53.80;99405.38;4443409;32;33709;-80
2022/07/01 02:31:35;;;;;;;15.93;7.28;;;;;;;26.20;53.94;99408.84;4444258;32;34618;-79
2022/07/01 02:34:24;;;;;;;11.18;7.15;;;;;;;26.13;54.20;99411.25;4455607;32;33361;-80
2022/07/01 02:36:58;;;;;;;11.50;6.82;;;;;;;26.00;54.44;99412.19;4432231;32;34921;-80
2022/07/01 02:39:38;;;;;;;9.40;6.55;;;;;;;25.92;54.62;99408.13;4444015;32;33348;-80
2022/07/01 02:42:26;;;;;;;10.80;6.30;;;;;;;26.02;54.35;99415.47;4443512;32;32353;-79
2022/07/01 02:44:57;;;;;;;9.60;6.47;;;;;;;25.96;54.48;99416.78;4443119;32;33586;-79
2022/07/01 02:47:30;;;;;;;9.18;6.57;;;;;;;25.93;54.47;99418.25;4456046;32;32135;-80
2022/07/01 02:50:02;;;;;;;9.30;6.35;;;;;;;25.92;54.54;99423.03;4443850;32;34791;-80
2022/07/01 02:52:34;;;;;;;11.38;6.80;;;;;;;25.90;54.53;99416.88;4473143;32;34763;-80
2022/07/01 02:55:03;;;;;;;11.80;6.00;;;;;;;25.86;54.74;99418.66;4446929;32;31897;-80
2022/07/01 02:57:31;;;;;;;10.82;6.43;;;;;;;25.96;54.45;99433.66;4458837;32;33968;-80
2022/07/01 03:00:05;;;;;;;10.63;6.55;;;;;;;25.97;54.44;99435.31;4430937;32;33966;-80
2022/07/01 03:02:36;;;;;;;8.15;6.35;;;;;;;25.85;54.84;99427.41;4457343;32;33914;-79
2022/07/01 03:05:05;;;;;;;10.50;6.18;;;;;;;25.99;54.47;99433.84;4442698;32;31962;-80
2022/07/01 03:07:34;;;;;;;12.30;6.55;;;;;;;25.97;54.56;99435.31;4456250;32;33925;-79
2022/07/01 03:10:04;;;;;;;10.85;6.28;;;;;;;25.77;55.08;99430.97;4456231;32;32863;-79
2022/07/01 03:12:34;;;;;;;11.20;6.57;;;;;;;25.74;55.18;99432.44;4456340;32;32658;-80
2022/07/01 03:15:14;;;;;;;8.95;6.32;;;;;;;25.81;55.03;99430.03;4442805;32;33597;-80
2022/07/01 03:17:48;;;;;;;9.23;6.57;;;;;;;25.81;55.16;99434.81;4456411;32;33699;-76
2022/07/01 03:20:17;;;;;;;9.50;6.32;;;;;;;26.06;54.43;99439.00;4443524;32;34037;-76
2022/07/01 03:22:50;;;;;;;9.95;6.28;;;;;;;26.15;54.23;99439.91;4456325;32;33946;-76
2022/07/01 03:25:18;;;;;;;12.63;6.62;;;;;;;26.15;54.17;99439.91;4470234;32;33253;-75
2022/07/01 03:27:47;;;;;;;8.65;5.85;;;;;;;26.24;53.96;99446.44;4456086;32;34553;-75
2022/07/01 03:30:18;;;;;;;9.82;6.07;;;;;;;26.21;54.06;99453.53;4470287;32;34347;-75
2022/07/01 03:32:52;;;;;;;10.15;6.30;;;;;;;26.25;54.03;99457.38;4470245;32;34010;-75
2022/07/01 03:38:08;;;;;;;11.48;6.45;;;;;;;26.29;54.32;99465.19;4470245;32;33427;-76
2022/07/01 03:40:42;;;;;;;9.68;6.25;;;;;;;26.21;54.70;99475.22;4456020;32;33611;-76
2022/07/01 03:43:15;;;;;;;11.35;6.80;;;;;;;26.29;54.67;99466.00;4470129;32;34417;-76
2022/07/01 03:45:53;;;;;;;10.02;6.18;;;;;;;26.36;54.49;99474.06;4470155;32;33007;-76
2022/07/01 03:48:25;;;;;;;11.07;6.15;;;;;;;26.31;54.72;99480.63;4469862;32;34569;-75
2022/07/01 03:50:56;;;;;;;12.13;6.15;;;;;;;26.35;54.67;99478.84;4470099;32;35166;-76
2022/07/01 03:56:16;;;;;;;10.82;6.00;;;;;;;26.42;54.61;99493.31;4469905;32;34263;-76
2022/07/01 03:58:49;;;;;;;10.85;6.53;;;;;;;26.41;54.85;99502.91;4470077;32;32627;-75
2022/07/01 04:01:17;;;;;;;11.00;6.15;;;;;;;26.45;54.88;99503.09;4469829;32;34339;-76
2022/07/01 04:03:48;;;;;;;10.75;5.90;;;;;;;26.45;55.03;99489.84;4455922;32;33849;-76
2022/07/01 04:06:16;;;;;;;11.23;6.10;;;;;;;26.48;54.73;99497.66;4455617;32;31871;-76
2022/07/01 04:08:46;;;;;;;14.18;6.30;;;;;;;26.53;54.10;99494.72;4456192;32;34273;-75
2022/07/01 04:11:15;;;;;;;11.18;6.30;;;;;;;26.51;53.96;99497.03;4456384;32;34696;-76
2022/07/01 04:13:50;;;;;;;14.15;6.43;;;;;;;26.54;54.33;99499.19;4455541;32;34091;-76
2022/07/01 04:16:23;;;;;;;11.53;6.87;;;;;;;26.53;54.92;99491.91;4469895;32;33726;-75
2022/07/01 04:18:57;;;;;;;13.02;6.85;;;;;;;26.58;55.06;99496.59;4455805;32;33387;-76
2022/07/01 04:24:19;;;;;;;10.38;6.93;;;;;;;26.37;55.71;99490.63;4469672;32;35322;-80
2022/07/01 04:26:50;;;;;;;11.70;6.90;;;;;;;26.52;55.23;99492.22;4443131;32;31889;-81
2022/07/01 04:29:21;;;;;;;12.32;7.10;;;;;;;26.50;55.38;99492.53;4442941;32;33512;-80
2022/07/01 04:31:49;;;;;;;10.07;7.18;;;;;;;26.58;55.42;99491.78;4429723;32;33177;-80
2022/07/01 04:34:19;;;;;;;12.05;7.50;;;;;;;26.86;54.62;99492.44;4443707;32;32864;-78
2022/07/01 04:36:52;;;;;;;13.32;6.68;;;;;;;26.85;54.65;99482.34;4443118;32;33206;-79
2022/07/01 04:39:25;;;;;;;10.90;6.97;;;;;;;26.94;54.42;99496.47;4455631;32;33958;-79
2022/07/01 04:41:59;;;;;;;10.23;7.07;;;;;;;27.04;53.87;99482.16;4442645;32;32689;-80
2022/07/01 04:44:31;;;;;;;15.23;7.15;;;;;;;27.08;53.74;99476.72;4456105;32;34475;-79
2022/07/01 04:47:00;;;;;;;12.15;7.35;;;;;;;27.12;53.85;99478.56;4455505;32;33315;-80
2022/07/01 04:49:31;;;;;;;17.27;7.95;;;;;;;27.20;53.95;99474.94;4442658;32;34386;-81
2022/07/01 04:52:01;;;;;;;12.63;7.15;;;;;;;27.29;53.58;99480.63;4429905;32;32951;-80
2022/07/01 04:54:35;;;;;;;12.98;7.18;;;;;;;27.35;53.59;99470.84;4442704;32;34840;-80
2022/07/01 04:57:04;;;;;;;18.23;8.23;;;;;;;27.44;53.43;99479.34;4443193;32;34113;-81
2022/07/01 04:59:32;;;;;;;12.50;7.30;;;;;;;27.51;53.50;99474.87;4429698;32;32676;-80
2022/07/01 05:02:01;;;;;;;17.00;8.57;;;;;;;27.62;53.17;99471.81;4455161;32;34254;-79
2022/07/01 05:04:31;;;;;;;12.90;7.43;;;;;;;27.69;52.87;99470.16;4442443;32;34360;-80
2022/07/01 05:07:02;;;;;;;10.32;7.20;;;;;;;27.78;52.83;99470.19;4442189;32;31715;-80
2022/07/01 05:09:32;;;;;;;12.30;7.45;;;;;;;27.91;52.21;99472.06;4455858;32;33754;-79
2022/07/01 05:12:08;;;;;;;12.63;7.72;;;;;;;27.96;52.01;99480.31;4444432;32;34201;-80
2022/07/01 05:14:40;;;;;;;12.75;7.18;;;;;;;27.98;52.31;99483.66;4457983;32;34910;-81
2022/07/01 05:17:11;;;;;;;11.48;7.35;;;;;;;28.06;52.41;99491.31;4445206;32;34594;-80
2022/07/01 05:22:33;;;;;;;12.25;8.45;;;;;;;28.17;53.02;99489.00;4458892;32;34315;-81
2022/07/01 05:25:03;;;;;;;14.48;8.52;;;;;;;28.24;53.45;99497.84;4444040;32;33785;-82
2022/07/01 05:27:36;;;;;;;14.35;7.72;;;;;;;28.35;53.40;99495.50;4444460;32;31872;-81
2022/07/01 05:30:10;;;;;;;12.75;6.47;;;;;;;28.43;53.46;99492.69;4457178;32;33869;-82
2022/07/01 05:32:37;;;;;;;18.17;7.95;;;;;;;28.53;53.59;99497.19;4444470;32;35075;-83
2022/07/01 05:35:08;;;;;;;10.75;7.20;;;;;;;28.63;53.44;99504.47;4444071;32;32470;-83
2022/07/01 05:37:36;;;;;;;52.13;23.85;;;;;;;28.75;53.34;99490.50;4457015;32;34176;-82
2022/07/01 05:40:04;;;;;;;18.27;8.80;;;;;;;28.82;53.53;99496.50;4444287;32;34740;-82
2022/07/01 05:42:35;;;;;;;27.35;13.57;;;;;;;28.91;54.08;99496.47;4432149;32;32980;-84
2022/07/01 05:45:06;;;;;;;17.52;11.20;;;;;;;29.04;54.62;99503.94;4444197;32;34030;-82
2022/07/01 05:47:39;;;;;;;25.70;11.80;;;;;;;29.17;53.64;99505.72;4457106;32;33983;-83
2022/07/01 05:50:07;;;;;;;14.85;7.72;;;;;;;29.25;53.05;99509.72;4431401;32;32158;-84
2022/07/01 05:52:42;;;;;;;16.90;7.82;;;;;;;29.30;53.42;99503.84;4444140;32;34133;-84
2022/07/01 05:55:14;;;;;;;13.48;7.50;;;;;;;29.44;52.51;99512.97;4456852;32;33205;-82
2022/07/01 05:57:44;;;;;;;12.60;7.43;;;;;;;29.58;50.54;99515.56;4456787;32;34256;-82
2022/07/01 06:00:16;;;;;;;12.52;8.30;;;;;;;29.58;50.74;99524.06;4431748;32;33488;-82
2022/07/01 06:02:50;;;;;;;16.25;8.73;;;;;;;29.63;50.96;99513.37;4443917;32;34240;-82
2022/07/01 06:05:20;;;;;;;14.85;8.20;;;;;;;29.66;51.43;99523.19;4431307;32;32378;-81
2022/07/01 06:07:54;;;;;;;11.48;8.23;;;;;;;29.80;50.79;99527.47;4456942;32;33314;-82
2022/07/01 06:10:25;;;;;;;14.40;7.45;;;;;;;29.91;50.53;99530.69;4443765;32;33455;-81
2022/07/01 06:13:02;;;;;;;12.80;7.72;;;;;;;29.88;50.36;99527.75;4431426;32;32472;-82
2022/07/01 06:15:36;;;;;;;10.57;8.13;;;;;;;29.96;49.66;99533.34;4444407;32;34133;-81
2022/07/01 06:18:11;;;;;;;16.83;8.32;;;;;;;30.06;48.88;99532.97;4445174;32;33323;-81
2022/07/01 06:20:43;;;;;;;17.90;8.35;;;;;;;30.13;48.27;99535.28;4443498;32;32302;-82
2022/07/01 06:23:12;;;;;;;18.10;9.38;;;;;;;30.11;48.42;99537.63;4444423;32;34541;-81
2022/07/01 06:25:43;;;;;;;14.38;8.88;;;;;;;30.10;49.35;99539.62;4431242;32;32304;-81
2022/07/01 06:28:12;;;;;;;21.35;9.32;;;;;;;30.11;49.29;99537.63;4432889;32;33625;-81
2022/07/01 06:30:49;;;;;;;16.08;9.45;;;;;;;30.08;48.79;99547.62;4446081;32;32852;-82
2022/07/01 06:33:19;;;;;;;13.65;7.50;;;;;;;30.28;48.76;99543.16;4431896;32;34866;-82
2022/07/01 06:36:00;;;;;;;13.77;8.57;;;;;;;30.31;48.07;99541.66;4470921;32;33705;-82
2022/07/01 06:38:37;;;;;;;15.07;7.93;;;;;;;30.38;47.89;99544.75;4445400;32;32753;-81
2022/07/01 06:41:26;;;;;;;19.70;8.38;;;;;;;30.45;46.87;99534.53;4445069;32;33785;-81
2022/07/01 06:44:01;;;;;;;15.45;8.82;;;;;;;30.57;46.79;99538.59;4446305;32;34548;-82
2022/07/01 06:46:30;;;;;;;18.02;8.27;;;;;;;30.66;47.10;99536.56;4470591;32;33979;-81
2022/07/01 06:49:03;;;;;;;17.27;8.13;;;;;;;30.55;47.80;99538.94;4443485;32;31757;-82
2022/07/01 06:51:31;;;;;;;12.37;7.97;;;;;;;30.69;47.19;99536.69;4443451;32;32348;-82
2022/07/01 06:54:09;;;;;;;17.00;8.02;;;;;;;30.75;46.97;99540.16;4443793;32;33115;-82
2022/07/01 06:56:38;;;;;;;18.25;8.10;;;;;;;30.82;46.90;99542.41;4444201;32;33873;-82
2022/07/01 06:59:12;;;;;;;12.13;8.27;;;;;;;30.75;47.37;99535.31;4443765;32;33952;-82
2022/07/01 07:01:43;;;;;;;14.32;7.25;;;;;;;30.95;47.04;99539.28;4443800;32;34626;-82
2022/07/01 07:04:13;;;;;;;14.02;7.22;;;;;;;30.99;45.60;99537.41;4444008;32;35148;-82
2022/07/01 07:06:47;;;;;;;14.60;6.75;;;;;;;31.04;45.51;99530.72;4456399;32;33740;-82
2022/07/01 07:09:18;;;;;;;13.15;7.25;;;;;;;31.26;45.14;99540.81;4443802;32;33280;-82
2022/07/01 07:11:46;;;;;;;10.95;5.40;;;;;;;31.23;45.52;99541.53;4430895;32;32189;-82
2022/07/01 07:14:17;;;;;;;14.75;5.78;;;;;;;31.19;44.14;99541.41;4456414;32;34529;-83
2022/07/01 07:16:50;;;;;;;13.32;5.45;;;;;;;31.33;43.27;99532.56;4442265;32;34871;-83
2022/07/01 07:19:24;;;;;;;12.45;5.62;;;;;;;31.28;42.49;99530.78;4443433;32;32034;-82
2022/07/01 07:21:55;;;;;;;11.05;5.35;;;;;;;31.51;42.65;99527.53;4442770;32;32786;-82
2022/07/01 07:24:31;;;;;;;13.45;5.45;;;;;;;31.57;43.03;99526.13;4444085;32;35303;-83
2022/07/01 07:27:04;;;;;;;10.13;5.57;;;;;;;31.69;42.25;99527.00;4431982;32;33766;-82
2022/07/01 07:29:40;;;;;;;12.13;5.05;;;;;;;31.76;41.50;99521.56;4470055;32;34005;-83
2022/07/01 07:32:13;;;;;;;11.35;5.28;;;;;;;31.76;41.48;99523.56;4430413;32;33178;-82
2022/07/01 07:34:44;;;;;;;9.82;4.70;;;;;;;31.92;41.38;99521.66;4456229;32;34921;-83
2022/07/01 07:37:14;;;;;;;13.35;5.30;;;;;;;32.06;40.77;99530.63;4456185;32;34870;-82
2022/07/01 07:39:49;;;;;;;12.88;5.45;;;;;;;32.09;40.46;99515.72;4443842;32;33597;-83
2022/07/01 07:42:21;;;;;;;12.65;5.60;;;;;;;32.15;40.54;99524.81;4443718;32;32003;-83
2022/07/01 07:44:49;;;;;;;10.18;4.53;;;;;;;32.11;41.54;99518.19;4456166;32;34427;-83
2022/07/01 07:47:23;;;;;;;11.15;4.78;;;;;;;32.34;40.58;99521.41;4443415;32;34476;-83
2022/07/01 07:49:54;;;;;;;12.80;5.07;;;;;;;32.29;39.07;99527.31;4443694;32;33250;-83
2022/07/01 07:52:28;;;;;;;11.12;5.28;;;;;;;32.33;38.90;99516.91;4430908;32;32424;-83
2022/07/01 07:55:02;;;;;;;10.48;4.28;;;;;;;32.61;38.78;99522.59;4456353;32;34415;-83
2022/07/01 07:57:36;;;;;;;12.25;4.90;;;;;;;32.56;38.86;99525.69;4443112;32;32836;-83
2022/07/01 08:00:09;;;;;;;12.52;5.30;;;;;;;32.63;39.83;99523.06;4442974;32;33163;-83
2022/07/01 08:02:43;;;;;;;10.13;4.20;;;;;;;32.96;38.03;99525.72;4456313;32;34474;-83
2022/07/01 08:05:13;;;;;;;12.50;4.18;;;;;;;32.89;37.68;99517.81;4430434;32;32858;-84
2022/07/01 08:07:44;;;;;;;9.15;4.12;;;;;;;33.10;37.00;99525.28;4430417;32;32223;-84
2022/07/01 08:10:13;;;;;;;10.65;4.30;;;;;;;33.03;36.98;99532.44;4443264;32;33488;-83
2022/07/01 08:12:45;;;;;;;11.73;4.75;;;;;;;33.24;37.18;99531.34;4443457;32;33691;-83
2022/07/01 08:15:15;;;;;;;6.90;4.00;;;;;;;33.28;37.52;99532.31;4443220;32;35600;-84
2022/07/01 08:17:46;;;;;;;10.23;4.43;;;;;;;33.41;36.25;99535.91;4456278;32;33884;-84
2022/07/01 08:20:22;;;;;;;11.18;4.55;;;;;;;33.45;35.84;99531.97;4456533;32;33185;-83
2022/07/01 08:22:55;;;;;;;12.52;4.62;;;;;;;33.50;36.32;99533.72;4430244;32;32358;-83
2022/07/01 08:25:29;;;;;;;11.77;4.85;;;;;;;33.74;35.09;99532.72;4443119;32;32502;-83
2022/07/01 08:28:05;;;;;;;10.60;4.75;;;;;;;33.72;36.82;99530.25;4431627;32;32253;-83
2022/07/01 08:30:38;;;;;;;8.05;3.97;;;;;;;33.77;36.18;99532.81;4443727;32;33178;-82
2022/07/01 08:33:12;;;;;;;7.80;4.10;;;;;;;33.93;34.65;99529.97;4443392;32;33913;-83
2022/07/01 08:35:45;;;;;;;9.02;3.92;;;;;;;34.01;33.28;99526.09;4429236;32;32931;-83
2022/07/01 08:38:22;;;;;;;11.55;4.30;;;;;;;34.06;32.63;99533.53;4443274;32;32550;-84
2022/07/01 08:40:53;;;;;;;12.93;4.30;;;;;;;34.26;33.55;99533.22;4430734;32;33173;-82
2022/07/01 08:43:24;;;;;;;12.32;4.37;;;;;;;34.33;33.50;99533.41;4442988;32;33061;-83
2022/07/01 08:46:01;;;;;;;12.18;4.10;;;;;;;34.47;33.56;99527.19;4433044;32;32825;-83
2022/07/01 08:48:34;;;;;;;10.73;4.25;;;;;;;34.49;33.87;99532.50;4445586;32;34057;-83
2022/07/01 08:51:08;;;;;;;12.32;4.32;;;;;;;34.67;33.44;99522.34;4457663;32;33326;-83
2022/07/01 08:53:47;;;;;;;11.25;3.92;;;;;;;34.84;32.93;99523.94;4444562;32;33965;-83
2022/07/01 08:59:09;;;;;;;9.82;4.07;;;;;;;34.97;32.61;99529.13;4446545;32;33099;-83
2022/07/01 09:01:40;;;;;;;11.27;3.87;;;;;;;34.95;30.72;99525.81;4432314;32;32202;-82
2022/07/01 09:04:20;;;;;;;10.02;3.58;;;;;;;35.15;30.93;99525.78;4444523;32;33043;-83
2022/07/01 09:06:49;;;;;;;12.20;4.47;;;;;;;35.13;31.11;99520.44;4431864;32;34216;-83
2022/07/01 09:09:24;;;;;;;15.20;4.40;;;;;;;35.26;31.23;99519.06;4431885;32;33295;-82
2022/07/01 09:11:55;;;;;;;11.82;4.00;;;;;;;35.24;31.46;99518.63;4431786;32;32516;-84
2022/07/01 09:14:29;;;;;;;8.43;3.50;;;;;;;35.25;30.59;99522.31;4457060;32;33800;-84
2022/07/01 09:17:03;;;;;;;10.90;3.33;;;;;;;35.41;30.91;99507.97;4457675;32;34427;-84
2022/07/01 09:19:39;;;;;;;9.50;3.90;;;;;;;35.81;29.60;99518.88;4446224;32;34575;-83
2022/07/01 09:22:17;;;;;;;14.68;4.05;;;;;;;35.84;29.52;99516.09;4438340;32;31593;-83
2022/07/01 09:24:45;;;;;;;8.30;4.22;;;;;;;35.87;29.67;99511.63;4443250;32;32367;-83
2022/07/01 09:27:21;;;;;;;9.07;3.35;;;;;;;35.86;29.35;99512.84;4462955;32;35126;-78
2022/07/01 09:29:53;;;;;;;10.05;3.65;;;;;;;36.02;28.73;99504.13;4448364;32;34635;-78
2022/07/01 09:32:29;;;;;;;9.38;4.03;;;;;;;36.07;28.88;99506.66;4450137;32;31746;-77
2022/07/01 09:35:02;;;;;;;10.15;3.70;;;;;;;36.11;28.95;99508.34;4446323;32;34435;-77
2022/07/01 09:37:32;;;;;;;9.65;3.80;;;;;;;36.25;28.77;99504.91;4443605;32;33300;-77
2022/07/01 09:40:06;;;;;;;12.25;3.90;;;;;;;36.19;28.83;99509.28;4449359;32;33866;-77
2022/07/01 09:42:46;;;;;;;9.35;3.85;;;;;;;36.43;29.08;99502.31;4447169;32;33234;-78
2022/07/01 09:45:17;;;;;;;11.12;3.78;;;;;;;36.66;28.33;99503.03;4447952;32;32216;-77
2022/07/01 09:47:51;;;;;;;14.32;4.18;;;;;;;36.75;28.20;99495.00;4439001;32;33077;-79
2022/07/01 09:50:24;;;;;;;11.27;4.37;;;;;;;36.93;27.63;99498.09;4442768;32;33425;-78
2022/07/01 09:52:58;;;;;;;10.57;3.60;;;;;;;36.73;27.82;99505.97;4447720;32;32171;-76
2022/07/01 09:58:49;;;;;;;10.52;3.60;;;;;;;37.09;27.50;99495.81;4448073;32;33117;-77
2022/07/01 10:01:24;;;;;;;11.40;3.92;;;;;;;37.41;26.95;99495.34;4433863;32;34230;-77
2022/07/01 10:04:08;;;;;;;9.80;4.22;;;;;;;37.42;27.07;99494.97;4436282;32;33176;-76
2022/07/01 10:06:45;;;;;;;9.37;3.63;;;;;;;37.27;26.60;99493.16;4440648;32;32331;-77
2022/07/01 10:09:48;;;;;;;10.25;3.55;;;;;;;37.63;27.24;99485.75;4444639;32;35454;-76
2022/07/01 10:13:17;;;;;;;11.90;3.85;;;;;;;37.83;26.63;99480.59;4443556;32;33065;-77
2022/07/01 10:15:46;;;;;;;13.88;3.83;;;;;;;38.04;25.69;99489.34;4456817;32;33383;-78
2022/07/01 10:18:27;;;;;;;7.80;2.78;;;;;;;37.90;25.31;99480.66;4444752;32;32457;-76
2022/07/01 10:20:58;;;;;;;15.25;3.62;;;;;;;37.64;25.48;99475.13;4444256;32;35259;-75
2022/07/01 10:23:41;;;;;;;12.30;3.62;;;;;;;37.61;25.91;99473.88;4430987;32;33980;-80
2022/07/01 10:26:11;;;;;;;7.30;2.97;;;;;;;37.44;26.03;99483.13;4421132;32;32742;-81
2022/07/01 10:28:41;;;;;;;11.27;3.33;;;;;;;37.57;25.72;99473.00;4449261;32;33914;-82
2022/07/01 10:31:18;;;;;;;13.57;3.55;;;;;;;37.67;25.40;99463.72;4435508;32;34600;-82
2022/07/01 10:33:58;;;;;;;9.60;3.53;;;;;;;37.89;24.62;99476.97;4435019;32;34654;-81
2022/07/01 10:36:39;;;;;;;7.80;3.62;;;;;;;38.23;23.37;99466.19;4418641;32;31997;-80
2022/07/01 10:39:11;;;;;;;9.98;3.53;;;;;;;38.43;23.85;99469.53;4435177;32;34545;-81
2022/07/01 10:41:47;;;;;;;13.52;3.15;;;;;;;38.80;23.62;99465.66;4445484;32;34424;-81
2022/07/01 10:44:23;;;;;;;7.80;3.25;;;;;;;38.98;22.92;99469.41;4461217;32;34493;-81
2022/07/01 10:47:22;;;;;;;10.40;3.72;;;;;;;39.31;22.23;99455.94;4433963;32;33340;-80
2022/07/01 10:49:52;;;;;;;12.00;3.62;;;;;;;39.33;22.15;99453.47;4450124;32;33726;-80
2022/07/01 10:52:29;;;;;;;11.20;3.15;;;;;;;39.79;22.15;99462.94;4443019;32;34018;-80
2022/07/01 10:55:04;;;;;;;12.02;3.62;;;;;;;39.77;22.07;99453.09;4445359;32;33994;-80
2022/07/01 11:01:05;;;;;;;13.20;4.20;;;;;;;40.28;22.16;99457.56;4461293;32;34860;-82
2022/07/01 11:03:39;;;;;;;9.68;3.60;;;;;;;40.12;22.21;99464.56;4448127;32;35269;-83
2022/07/01 11:06:08;;;;;;;10.10;3.83;;;;;;;40.35;21.93;99455.50;4438589;32;33288;-83
2022/07/01 11:08:38;;;;;;;14.27;3.80;;;;;;;39.95;21.80;99453.94;4449404;32;33008;-82
2022/07/01 11:11:08;;;;;;;13.48;3.65;;;;;;;39.74;22.04;99459.66;4454698;32;33174;-82
2022/07/01 11:13:36;;;;;;;11.68;3.33;;;;;;;39.43;22.82;99467.84;4460537;32;34614;-82
2022/07/01 11:16:04;;;;;;;14.05;3.62;;;;;;;39.08;23.41;99460.00;4440575;32;32357;-82
2022/07/01 11:18:32;;;;;;;11.75;3.83;;;;;;;39.04;23.75;99461.22;4447441;32;32802;-83
2022/07/01 11:21:06;;;;;;;11.32;3.80;;;;;;;39.10;23.81;99456.72;4453868;32;34642;-81
2022/07/01 11:23:37;;;;;;;11.10;3.60;;;;;;;39.01;24.23;99456.25;4440358;32;32903;-81
2022/07/01 11:26:25;;;;;;;12.27;3.83;;;;;;;39.15;23.38;99444.84;4445396;32;33774;-82
2022/07/01 11:28:54;;;;;;;8.25;3.20;;;;;;;39.38;22.49;99453.91;4450285;32;33837;-81
2022/07/01 11:31:32;;;;;;;9.50;3.58;;;;;;;39.29;22.66;99452.66;4455073;32;33745;-80
2022/07/01 11:34:01;;;;;;;10.23;3.40;;;;;;;39.65;22.73;99442.03;4461924;32;34762;-81
2022/07/01 11:43:29;;;;;;;8.55;3.85;;;;;;;39.60;22.58;99416.59;4477797;32;34592;-81
2022/07/01 11:46:04;;;;;;;12.57;4.20;;;;;;;39.49;21.98;99420.28;4449844;32;34442;-81
2022/07/01 11:48:38;;;;;;;15.82;3.87;;;;;;;39.44;22.33;99423.53;4433996;32;115788;-82
2022/07/01 11:51:19;;;;;;;10.38;3.70;;;;;;;39.50;22.83;99416.19;4436127;32;33229;-81
2022/07/01 11:53:50;;;;;;;11.88;3.97;;;;;;;39.67;22.48;99413.69;4440705;32;34341;-80
2022/07/01 11:56:28;;;;;;;11.80;3.70;;;;;;;39.79;22.23;99416.97;4440665;32;33301;-80
2022/07/01 11:59:01;;;;;;;11.55;3.58;;;;;;;39.84;21.41;99413.66;4453448;32;33875;-79
2022/07/01 12:01:35;;;;;;;11.27;3.87;;;;;;;40.16;21.02;99401.31;4448131;32;32900;-79
2022/07/01 12:04:07;;;;;;;7.65;2.97;;;;;;;40.29;21.33;99396.75;4453621;32;32271;-80
2022/07/01 12:06:38;;;;;;;10.27;3.83;;;;;;;40.38;20.37;99393.44;4453234;32;34270;-79
2022/07/01 12:09:06;;;;;;;10.13;3.35;;;;;;;40.58;20.26;99394.56;4453302;32;34256;-80
2022/07/01 12:11:45;;;;;;;9.57;3.80;;;;;;;40.61;19.51;99387.16;4441182;32;33470;-81
2022/07/01 12:14:21;;;;;;;9.68;3.58;;;;;;;40.66;19.44;99386.72;4440675;32;33108;-82
2022/07/01 12:16:56;;;;;;;11.12;3.75;;;;;;;40.61;19.61;99379.34;4441129;32;34441;-82
2022/07/01 12:19:46;;;;;;;11.38;4.05;;;;;;;40.68;20.29;99379.31;4452721;32;32324;-82
2022/07/01 12:22:19;;;;;;;15.65;3.80;;;;;;;40.88;19.72;99387.47;4453224;32;33249;-81